Time;durP1;ratioP1;P1;durP2;ratioP2;P2;SDS_P1;SDS_P2;PMS_P1;PMS_P2;Temp;Humidity;BMP_temperature;BMP_pressure;BME280_temperature;BME280_humidity;BME280_pressure;Samples;Min_cycle;Max_cycle;Signal;HPM_P1;HPM_P2
2023/12/30 00:01:59;;;;;;;1.80;0.40;;;;;;;;;;5026106;28;20030;-77
2023/12/30 00:04:25;;;;;;;0.65;0.52;;;;;;;;;;5027505;28;20532;-77
2023/12/30 00:06:51;;;;;;;0.40;0.40;;;;;;;;;;5040475;28;20072;-76
2023/12/30 00:09:17;;;;;;;0.82;0.55;;;;;;;;;;5046134;28;20225;-76
2023/12/30 00:11:44;;;;;;;0.50;0.50;;;;;;;;;;5040758;28;20107;-77
2023/12/30 00:14:10;;;;;;;0.85;0.65;;;;;;;;;;5028766;28;20111;-77
2023/12/30 00:16:39;;;;;;;0.70;0.52;;;;;;;;;;5036595;28;20519;-77
2023/12/30 00:19:05;;;;;;;0.55;0.52;;;;;;;;;;5035059;28;20026;-77
2023/12/30 00:21:31;;;;;;;0.32;0.32;;;;;;;;;;5031047;28;20022;-77
2023/12/30 00:23:57;;;;;;;0.40;0.40;;;;;;;;;;5023624;28;20072;-76
2023/12/30 00:26:24;;;;;;;3.80;0.80;;;;;;;;;;5031256;28;20018;-77
2023/12/30 00:28:50;;;;;;;0.70;0.70;;;;;;;;;;5031246;28;20017;-77
2023/12/30 00:31:20;;;;;;;0.70;0.70;;;;;;;;;;5036559;28;20017;-77
2023/12/30 00:33:46;;;;;;;1.00;0.60;;;;;;;;;;5038802;28;20014;-78
2023/12/30 00:36:12;;;;;;;0.40;0.40;;;;;;;;;;5020516;28;20068;-77
2023/12/30 00:38:39;;;;;;;0.30;0.30;;;;;;;;;;5029451;28;20518;-78
2023/12/30 00:41:05;;;;;;;1.05;0.63;;;;;;;;;;5032833;28;20024;-77
2023/12/30 00:43:32;;;;;;;0.38;0.38;;;;;;;;;;5022287;28;20066;-77
2023/12/30 00:45:58;;;;;;;0.40;0.40;;;;;;;;;;5019828;28;20452;-76
2023/12/30 00:48:24;;;;;;;0.73;0.60;;;;;;;;;;5026195;28;20044;-77
2023/12/30 00:50:50;;;;;;;0.40;0.40;;;;;;;;;;5025145;28;20033;-78
2023/12/30 00:53:16;;;;;;;0.60;0.60;;;;;;;;;;5026193;28;20034;-77
2023/12/30 00:55:42;;;;;;;0.57;0.57;;;;;;;;;;5031246;28;20447;-76
2023/12/30 00:58:08;;;;;;;1.92;0.80;;;;;;;;;;5035525;28;20027;-76
2023/12/30 01:00:34;;;;;;;2.72;1.02;;;;;;;;;;5032559;28;20021;-78
2023/12/30 01:03:00;;;;;;;0.63;0.60;;;;;;;;;;5024354;28;20342;-77
2023/12/30 01:05:27;;;;;;;0.55;0.50;;;;;;;;;;5035986;28;20025;-77
2023/12/30 01:07:53;;;;;;;0.55;0.55;;;;;;;;;;5040113;28;20022;-76
2023/12/30 01:10:19;;;;;;;2.55;0.70;;;;;;;;;;5054800;28;20033;-76
2023/12/30 01:12:45;;;;;;;0.85;0.50;;;;;;;;;;5053154;28;20030;-76
2023/12/30 01:15:11;;;;;;;1.23;0.80;;;;;;;;;;5047178;28;20097;-76
2023/12/30 01:17:37;;;;;;;0.63;0.63;;;;;;;;;;5047388;28;20028;-76
2023/12/30 01:20:04;;;;;;;0.60;0.50;;;;;;;;;;5034481;28;20033;-78
2023/12/30 01:22:30;;;;;;;0.50;0.40;;;;;;;;;;5031957;28;20045;-77
2023/12/30 01:24:56;;;;;;;0.50;0.50;;;;;;;;;;5021375;28;20408;-78
2023/12/30 01:27:22;;;;;;;1.67;0.60;;;;;;;;;;5036190;28;20013;-78
2023/12/30 01:29:49;;;;;;;0.65;0.65;;;;;;;;;;5035718;28;20021;-77
2023/12/30 01:32:15;;;;;;;0.40;0.40;;;;;;;;;;5027343;28;20026;-77
2023/12/30 01:34:41;;;;;;;1.00;0.57;;;;;;;;;;5029311;28;20029;-77
2023/12/30 01:37:07;;;;;;;0.60;0.60;;;;;;;;;;5019264;28;20469;-78
2023/12/30 01:39:33;;;;;;;0.40;0.40;;;;;;;;;;5023638;28;20017;-77
2023/12/30 01:41:59;;;;;;;0.80;0.57;;;;;;;;;;5032115;28;20021;-77
2023/12/30 01:44:25;;;;;;;0.60;0.60;;;;;;;;;;5017616;28;20469;-77
2023/12/30 01:46:52;;;;;;;1.00;0.80;;;;;;;;;;5034284;28;20060;-77
2023/12/30 01:49:18;;;;;;;0.70;0.70;;;;;;;;;;5015235;28;20028;-77
2023/12/30 01:51:45;;;;;;;0.68;0.63;;;;;;;;;;5029676;28;20056;-77
2023/12/30 01:54:11;;;;;;;0.50;0.50;;;;;;;;;;5018359;28;20396;-77
2023/12/30 01:56:37;;;;;;;0.73;0.68;;;;;;;;;;5035600;28;20032;-76
2023/12/30 01:59:03;;;;;;;1.98;0.65;;;;;;;;;;5030544;28;20025;-76
2023/12/30 02:01:29;;;;;;;1.00;0.70;;;;;;;;;;5033971;28;20171;-77
2023/12/30 02:03:56;;;;;;;1.00;0.90;;;;;;;;;;5029768;28;20095;-77
2023/12/30 02:06:22;;;;;;;0.75;0.75;;;;;;;;;;5027311;28;20469;-76
2023/12/30 02:08:48;;;;;;;0.95;0.82;;;;;;;;;;5021610;28;20026;-77
2023/12/30 02:11:15;;;;;;;0.82;0.70;;;;;;;;;;5034453;28;20026;-78
2023/12/30 02:13:44;;;;;;;1.85;0.90;;;;;;;;;;5020988;28;20384;-76
2023/12/30 02:16:11;;;;;;;0.88;0.77;;;;;;;;;;5015192;28;20029;-77
2023/12/30 02:18:40;;;;;;;0.95;0.90;;;;;;;;;;5027906;28;20030;-77
2023/12/30 02:21:06;;;;;;;1.88;1.20;;;;;;;;;;5048961;28;20013;-76
2023/12/30 02:23:32;;;;;;;2.03;1.10;;;;;;;;;;5047169;28;20006;-76
2023/12/30 02:25:58;;;;;;;1.08;0.95;;;;;;;;;;5049570;28;20009;-77
2023/12/30 02:28:24;;;;;;;2.08;0.77;;;;;;;;;;5051795;28;20030;-76
2023/12/30 02:30:50;;;;;;;0.77;0.77;;;;;;;;;;5027948;28;20025;-77
2023/12/30 02:33:17;;;;;;;0.98;0.90;;;;;;;;;;5033749;28;20052;-77
2023/12/30 02:35:43;;;;;;;0.85;0.80;;;;;;;;;;5028582;28;20036;-78
2023/12/30 02:38:09;;;;;;;1.00;1.00;;;;;;;;;;5024947;28;20114;-77
2023/12/30 02:40:36;;;;;;;1.38;1.02;;;;;;;;;;5021597;28;20025;-77
2023/12/30 02:43:02;;;;;;;1.13;0.90;;;;;;;;;;5022815;28;20022;-77
2023/12/30 02:45:28;;;;;;;1.95;0.70;;;;;;;;;;5028532;28;20018;-79
2023/12/30 02:47:54;;;;;;;0.80;0.80;;;;;;;;;;5020670;28;20029;-77
2023/12/30 02:50:20;;;;;;;0.45;0.45;;;;;;;;;;5023371;28;20044;-77
2023/12/30 02:52:46;;;;;;;0.40;0.40;;;;;;;;;;5026830;28;20029;-77
2023/12/30 02:55:12;;;;;;;1.65;0.88;;;;;;;;;;5033451;28;20360;-79
2023/12/30 02:57:39;;;;;;;0.80;0.70;;;;;;;;;;5025815;28;20037;-77
2023/12/30 03:00:05;;;;;;;0.80;0.77;;;;;;;;;;5030748;28;20021;-77
2023/12/30 03:02:31;;;;;;;1.70;1.10;;;;;;;;;;5025345;28;20034;-77
2023/12/30 03:04:57;;;;;;;1.60;0.70;;;;;;;;;;5031897;28;20045;-77
2023/12/30 03:07:24;;;;;;;1.48;1.23;;;;;;;;;;5022741;28;20518;-77
2023/12/30 03:09:51;;;;;;;1.38;0.70;;;;;;;;;;5033234;28;20017;-77
2023/12/30 03:12:18;;;;;;;1.20;0.82;;;;;;;;;;5024854;28;20026;-77
2023/12/30 03:14:44;;;;;;;1.27;1.17;;;;;;;;;;5028713;28;20455;-76
2023/12/30 03:17:10;;;;;;;1.48;1.20;;;;;;;;;;5028298;28;20472;-77
2023/12/30 03:19:37;;;;;;;1.25;0.88;;;;;;;;;;5021779;28;20014;-78
2023/12/30 03:22:03;;;;;;;1.30;0.88;;;;;;;;;;5021127;28;20018;-76
2023/12/30 03:24:29;;;;;;;0.82;0.80;;;;;;;;;;5032923;28;20033;-77
2023/12/30 03:26:55;;;;;;;0.77;0.77;;;;;;;;;;5025137;28;20036;-78
2023/12/30 03:29:21;;;;;;;1.50;1.00;;;;;;;;;;5021794;28;20037;-76
2023/12/30 03:31:47;;;;;;;1.20;1.10;;;;;;;;;;5026866;28;20294;-77
2023/12/30 03:34:13;;;;;;;0.93;0.80;;;;;;;;;;5033229;28;20540;-77
2023/12/30 03:36:39;;;;;;;0.93;0.93;;;;;;;;;;5036639;28;20423;-77
2023/12/30 03:39:06;;;;;;;1.23;1.13;;;;;;;;;;5020192;28;20022;-77
2023/12/30 03:41:32;;;;;;;1.40;1.10;;;;;;;;;;5036925;28;20450;-77
2023/12/30 03:43:58;;;;;;;1.42;1.10;;;;;;;;;;5028663;28;20022;-77
2023/12/30 03:46:24;;;;;;;0.80;0.80;;;;;;;;;;5033140;28;20017;-77
2023/12/30 03:48:50;;;;;;;1.55;0.90;;;;;;;;;;5028520;28;20033;-77
2023/12/30 03:51:16;;;;;;;1.20;1.10;;;;;;;;;;5033747;28;20079;-76
2023/12/30 03:53:42;;;;;;;0.90;0.90;;;;;;;;;;5035631;28;20026;-77
2023/12/30 03:56:08;;;;;;;1.30;0.98;;;;;;;;;;5027654;28;20018;-77
2023/12/30 03:58:35;;;;;;;1.27;0.95;;;;;;;;;;5034731;28;20499;-77
2023/12/30 04:01:01;;;;;;;0.90;0.90;;;;;;;;;;5036964;28;20034;-77
2023/12/30 04:03:27;;;;;;;1.05;0.95;;;;;;;;;;5039309;28;20017;-77
2023/12/30 04:05:53;;;;;;;1.27;1.13;;;;;;;;;;5031702;28;20025;-77
2023/12/30 04:08:19;;;;;;;1.17;1.05;;;;;;;;;;5028281;28;20042;-76
2023/12/30 04:10:45;;;;;;;0.73;0.73;;;;;;;;;;5035683;28;20546;-77
2023/12/30 04:13:11;;;;;;;3.40;1.10;;;;;;;;;;5035098;28;21728;-77
2023/12/30 04:15:37;;;;;;;1.17;0.93;;;;;;;;;;5034554;28;20345;-77
2023/12/30 04:18:03;;;;;;;1.38;0.70;;;;;;;;;;5030418;28;20033;-77
2023/12/30 04:20:30;;;;;;;2.35;1.20;;;;;;;;;;5031487;28;20062;-77
2023/12/30 04:22:56;;;;;;;1.52;1.00;;;;;;;;;;5038960;28;20036;-77
2023/12/30 04:25:23;;;;;;;1.63;1.20;;;;;;;;;;5043530;28;20021;-77
2023/12/30 04:27:49;;;;;;;1.40;1.10;;;;;;;;;;5049185;28;20029;-77
2023/12/30 04:30:15;;;;;;;0.98;0.80;;;;;;;;;;5036291;28;20087;-76
2023/12/30 04:32:41;;;;;;;1.15;1.00;;;;;;;;;;5049375;28;20026;-76
2023/12/30 04:35:07;;;;;;;1.35;1.05;;;;;;;;;;5038632;28;20037;-76
2023/12/30 04:37:33;;;;;;;1.33;0.88;;;;;;;;;;5041930;28;20072;-77
2023/12/30 04:40:00;;;;;;;1.10;1.00;;;;;;;;;;5038884;28;20060;-76
2023/12/30 04:42:26;;;;;;;2.10;0.80;;;;;;;;;;5033184;28;20025;-76
2023/12/30 04:44:52;;;;;;;0.80;0.70;;;;;;;;;;5036015;28;20427;-77
2023/12/30 04:47:18;;;;;;;0.60;0.60;;;;;;;;;;5031539;28;20018;-76
2023/12/30 04:49:44;;;;;;;1.30;1.15;;;;;;;;;;5020360;28;20033;-77
2023/12/30 04:52:10;;;;;;;1.10;1.00;;;;;;;;;;5034042;28;20029;-78
2023/12/30 04:54:37;;;;;;;0.70;0.63;;;;;;;;;;5026032;28;20029;-77
2023/12/30 04:57:03;;;;;;;1.67;1.13;;;;;;;;;;5035737;28;20104;-78
2023/12/30 04:59:29;;;;;;;1.58;0.82;;;;;;;;;;5034922;28;20021;-77
2023/12/30 05:01:56;;;;;;;2.13;0.88;;;;;;;;;;5034601;28;20022;-77
2023/12/30 05:04:22;;;;;;;0.80;0.77;;;;;;;;;;5026098;28;20029;-77
2023/12/30 05:06:48;;;;;;;0.50;0.50;;;;;;;;;;5026245;28;20026;-77
2023/12/30 05:09:15;;;;;;;1.85;0.95;;;;;;;;;;5033778;28;20029;-76
2023/12/30 05:11:44;;;;;;;1.00;0.90;;;;;;;;;;5033937;28;20122;-78
2023/12/30 05:14:11;;;;;;;0.80;0.80;;;;;;;;;;5025499;28;20060;-77
2023/12/30 05:16:44;;;;;;;0.88;0.75;;;;;;;;;;5025735;28;20033;-77
2023/12/30 05:19:11;;;;;;;0.70;0.70;;;;;;;;;;5024779;28;20022;-77
2023/12/30 05:21:37;;;;;;;2.17;0.90;;;;;;;;;;5022145;28;20021;-78
2023/12/30 05:24:03;;;;;;;0.77;0.77;;;;;;;;;;5030692;28;20022;-78
2023/12/30 05:26:30;;;;;;;1.17;0.65;;;;;;;;;;5033455;28;20109;-75
2023/12/30 05:28:57;;;;;;;1.80;0.65;;;;;;;;;;5025968;28;20057;-77
2023/12/30 05:31:23;;;;;;;0.63;0.63;;;;;;;;;;5021095;28;20022;-76
2023/12/30 05:33:49;;;;;;;0.88;0.80;;;;;;;;;;5032237;28;20504;-75
2023/12/30 05:36:16;;;;;;;1.10;1.00;;;;;;;;;;5013237;28;20079;-76
2023/12/30 05:38:46;;;;;;;0.75;0.75;;;;;;;;;;5025814;28;20025;-76
2023/12/30 05:41:12;;;;;;;0.80;0.80;;;;;;;;;;5024195;28;20026;-77
2023/12/30 05:43:39;;;;;;;1.13;0.70;;;;;;;;;;5032475;28;20014;-76
2023/12/30 05:46:05;;;;;;;0.90;0.70;;;;;;;;;;5032988;28;20095;-75
2023/12/30 05:48:31;;;;;;;1.70;0.70;;;;;;;;;;5023725;28;20057;-77
2023/12/30 05:50:57;;;;;;;2.30;0.95;;;;;;;;;;5018162;28;20033;-80
2023/12/30 05:53:23;;;;;;;1.08;1.00;;;;;;;;;;5032645;28;20029;-77
2023/12/30 05:55:52;;;;;;;1.02;0.90;;;;;;;;;;5033182;28;20380;-77
2023/12/30 05:58:18;;;;;;;1.85;0.80;;;;;;;;;;5032063;28;20021;-75
2023/12/30 06:00:44;;;;;;;0.88;0.80;;;;;;;;;;5031584;28;20440;-75
2023/12/30 06:03:12;;;;;;;0.88;0.60;;;;;;;;;;5023827;28;20025;-76
2023/12/30 06:05:38;;;;;;;1.38;1.02;;;;;;;;;;5034208;28;20427;-75
2023/12/30 06:08:05;;;;;;;1.27;0.80;;;;;;;;;;5033983;28;20037;-76
2023/12/30 06:10:31;;;;;;;1.05;0.88;;;;;;;;;;5027136;28;20024;-76
2023/12/30 06:12:58;;;;;;;1.15;0.90;;;;;;;;;;5033566;28;20025;-74
2023/12/30 06:15:24;;;;;;;1.30;0.75;;;;;;;;;;5029123;28;20029;-75
2023/12/30 06:17:50;;;;;;;2.00;1.00;;;;;;;;;;5029964;28;20045;-74
2023/12/30 06:20:17;;;;;;;1.42;1.27;;;;;;;;;;5025754;28;20026;-76
2023/12/30 06:22:44;;;;;;;1.83;1.33;;;;;;;;;;5023063;28;20100;-77
2023/12/30 06:25:10;;;;;;;1.10;0.98;;;;;;;;;;5025532;28;20499;-75
2023/12/30 06:27:36;;;;;;;4.05;1.35;;;;;;;;;;5031059;28;20025;-77
2023/12/30 06:30:02;;;;;;;2.45;1.27;;;;;;;;;;5033006;28;20022;-76
2023/12/30 06:32:29;;;;;;;2.25;1.00;;;;;;;;;;5029545;28;20486;-76
2023/12/30 06:34:55;;;;;;;2.38;1.33;;;;;;;;;;5029590;28;20029;-76
2023/12/30 06:37:22;;;;;;;1.33;1.23;;;;;;;;;;5032516;28;20025;-76
2023/12/30 06:39:48;;;;;;;4.93;1.52;;;;;;;;;;5033411;28;20049;-77
2023/12/30 06:42:14;;;;;;;1.75;1.58;;;;;;;;;;5030528;28;20025;-76
2023/12/30 06:44:40;;;;;;;3.53;1.70;;;;;;;;;;5032965;28;20020;-76
2023/12/30 06:47:06;;;;;;;2.67;1.40;;;;;;;;;;5032870;28;20479;-75
2023/12/30 06:49:32;;;;;;;1.80;1.20;;;;;;;;;;5024530;28;20029;-75
2023/12/30 06:51:58;;;;;;;1.85;1.48;;;;;;;;;;5026430;28;20022;-76
2023/12/30 06:54:25;;;;;;;1.30;1.15;;;;;;;;;;5024998;28;20431;-76
2023/12/30 06:56:53;;;;;;;1.17;1.08;;;;;;;;;;5032303;28;20021;-76
2023/12/30 06:59:19;;;;;;;1.08;0.95;;;;;;;;;;5031757;28;20029;-76
2023/12/30 07:01:46;;;;;;;1.40;1.30;;;;;;;;;;5032562;28;20097;-76
2023/12/30 07:04:13;;;;;;;2.95;1.38;;;;;;;;;;5023421;28;20029;-75
2023/12/30 07:06:39;;;;;;;2.17;1.42;;;;;;;;;;5032209;28;20055;-74
2023/12/30 07:09:07;;;;;;;1.77;1.20;;;;;;;;;;5032746;28;20021;-76
2023/12/30 07:11:33;;;;;;;1.40;1.20;;;;;;;;;;5019327;28;20026;-76
2023/12/30 07:13:59;;;;;;;1.30;0.98;;;;;;;;;;5028998;28;20030;-74
2023/12/30 07:16:25;;;;;;;2.90;1.20;;;;;;;;;;5036154;28;20028;-75
2023/12/30 07:18:51;;;;;;;1.73;1.50;;;;;;;;;;5037249;28;20094;-77
2023/12/30 07:21:18;;;;;;;1.50;1.23;;;;;;;;;;5021375;28;20033;-76
2023/12/30 07:23:44;;;;;;;1.30;1.20;;;;;;;;;;5033196;28;20030;-76
2023/12/30 07:26:10;;;;;;;1.63;1.35;;;;;;;;;;5033784;28;20026;-76
2023/12/30 07:28:36;;;;;;;1.60;1.45;;;;;;;;;;5036652;28;20388;-75
2023/12/30 07:31:02;;;;;;;1.77;1.20;;;;;;;;;;5036438;28;20029;-76
2023/12/30 07:33:28;;;;;;;2.00;1.17;;;;;;;;;;5036695;28;20090;-75
2023/12/30 07:35:55;;;;;;;1.77;1.23;;;;;;;;;;5038716;28;20029;-75
2023/12/30 07:38:21;;;;;;;1.45;1.30;;;;;;;;;;5041611;28;20026;-76
2023/12/30 07:40:47;;;;;;;2.70;0.80;;;;;;;;;;5038037;28;20026;-76
2023/12/30 07:43:13;;;;;;;1.27;1.05;;;;;;;;;;5050080;28;20028;-76
2023/12/30 07:45:40;;;;;;;0.82;0.80;;;;;;;;;;5047802;28;20037;-76
2023/12/30 07:48:06;;;;;;;1.10;0.90;;;;;;;;;;5035662;28;20026;-75
2023/12/30 07:50:32;;;;;;;1.00;0.90;;;;;;;;;;5021548;28;20036;-76
2023/12/30 07:52:58;;;;;;;0.70;0.68;;;;;;;;;;5031893;28;20025;-76
2023/12/30 07:55:24;;;;;;;0.80;0.80;;;;;;;;;;5030158;28;20658;-76
2023/12/30 07:57:50;;;;;;;1.13;0.65;;;;;;;;;;5035306;28;20071;-75
2023/12/30 08:00:16;;;;;;;1.00;0.70;;;;;;;;;;5035139;28;20017;-75
2023/12/30 08:02:44;;;;;;;0.82;0.82;;;;;;;;;;5035706;28;20017;-74
2023/12/30 08:05:10;;;;;;;3.03;0.70;;;;;;;;;;5031742;28;20037;-76
2023/12/30 08:07:36;;;;;;;1.00;0.90;;;;;;;;;;5034899;28;20519;-76
2023/12/30 08:10:02;;;;;;;0.88;0.88;;;;;;;;;;5035167;28;20026;-76
2023/12/30 08:12:28;;;;;;;1.48;0.73;;;;;;;;;;5036586;28;20022;-76
2023/12/30 08:14:55;;;;;;;1.48;1.05;;;;;;;;;;5030467;28;20049;-75
2023/12/30 08:17:21;;;;;;;0.90;0.90;;;;;;;;;;5027617;28;20033;-74
2023/12/30 08:19:47;;;;;;;0.93;0.90;;;;;;;;;;5025855;28;20025;-74
2023/12/30 08:22:13;;;;;;;0.82;0.82;;;;;;;;;;5036630;28;20018;-75
2023/12/30 08:24:39;;;;;;;1.10;1.00;;;;;;;;;;5028336;28;20135;-76
2023/12/30 08:27:05;;;;;;;3.13;1.00;;;;;;;;;;5026946;28;20026;-76
2023/12/30 08:29:31;;;;;;;1.05;0.90;;;;;;;;;;5034624;28;20024;-72
2023/12/30 08:31:57;;;;;;;1.85;1.20;;;;;;;;;;5035401;28;20030;-75
2023/12/30 08:34:27;;;;;;;1.00;0.88;;;;;;;;;;5034519;28;20075;-76
2023/12/30 08:36:53;;;;;;;1.00;0.93;;;;;;;;;;5028857;28;20033;-75
2023/12/30 08:39:19;;;;;;;1.92;0.77;;;;;;;;;;5032486;28;20021;-77
2023/12/30 08:41:46;;;;;;;1.00;0.93;;;;;;;;;;5033757;28;20025;-76
2023/12/30 08:44:12;;;;;;;1.13;0.68;;;;;;;;;;5033882;28;20075;-75
2023/12/30 08:46:38;;;;;;;2.90;0.80;;;;;;;;;;5032565;28;20457;-76
2023/12/30 08:49:04;;;;;;;0.77;0.77;;;;;;;;;;5034069;28;20493;-75
2023/12/30 08:51:32;;;;;;;0.68;0.60;;;;;;;;;;5032067;28;20461;-75
2023/12/30 08:53:58;;;;;;;0.77;0.63;;;;;;;;;;5028170;28;20507;-76
2023/12/30 08:56:24;;;;;;;1.02;0.80;;;;;;;;;;5034427;28;20033;-75
2023/12/30 08:58:50;;;;;;;0.90;0.57;;;;;;;;;;5027581;28;20108;-76
2023/12/30 09:01:16;;;;;;;1.70;1.13;;;;;;;;;;5035444;28;20022;-74
2023/12/30 09:03:43;;;;;;;0.73;0.70;;;;;;;;;;5034884;28;20033;-75
2023/12/30 09:06:09;;;;;;;1.08;0.80;;;;;;;;;;5034512;28;20569;-75
2023/12/30 09:08:35;;;;;;;1.02;0.70;;;;;;;;;;5030123;28;20029;-76
2023/12/30 09:11:01;;;;;;;0.65;0.65;;;;;;;;;;5040828;28;20022;-74
2023/12/30 09:13:27;;;;;;;1.67;0.82;;;;;;;;;;5040382;28;20043;-76
2023/12/30 09:15:53;;;;;;;0.80;0.80;;;;;;;;;;5033492;28;20029;-77
2023/12/30 09:18:19;;;;;;;0.63;0.63;;;;;;;;;;5035613;28;20029;-75
2023/12/30 09:20:45;;;;;;;1.55;0.80;;;;;;;;;;5036110;28;20067;-75
2023/12/30 09:23:12;;;;;;;1.83;0.82;;;;;;;;;;5028936;28;20431;-75
2023/12/30 09:25:38;;;;;;;1.15;0.80;;;;;;;;;;5037213;28;20017;-75
2023/12/30 09:28:04;;;;;;;1.50;0.70;;;;;;;;;;5028380;28;20507;-75
2023/12/30 09:30:30;;;;;;;1.48;0.95;;;;;;;;;;5033385;28;20029;-74
2023/12/30 09:32:57;;;;;;;1.15;0.80;;;;;;;;;;5024918;28;20031;-75
2023/12/30 09:35:23;;;;;;;1.38;0.70;;;;;;;;;;5033736;28;20507;-75
2023/12/30 09:37:49;;;;;;;0.90;0.60;;;;;;;;;;5031938;28;20029;-76
2023/12/30 09:40:15;;;;;;;0.47;0.40;;;;;;;;;;5025632;28;20025;-75
2023/12/30 09:42:44;;;;;;;0.70;0.70;;;;;;;;;;5033425;28;20021;-75
2023/12/30 09:45:13;;;;;;;1.60;0.60;;;;;;;;;;5033674;28;20014;-75
2023/12/30 09:47:40;;;;;;;1.27;0.60;;;;;;;;;;5025272;28;20045;-75
2023/12/30 09:50:07;;;;;;;1.15;0.90;;;;;;;;;;5025871;28;20040;-76
2023/12/30 09:52:33;;;;;;;0.80;0.50;;;;;;;;;;5023994;28;20056;-76
2023/12/30 09:54:59;;;;;;;0.73;0.50;;;;;;;;;;5031879;28;20037;-75
2023/12/30 09:57:25;;;;;;;1.10;0.80;;;;;;;;;;5031480;28;20091;-75
2023/12/30 09:59:52;;;;;;;1.15;0.65;;;;;;;;;;5027651;28;20018;-76
2023/12/30 10:02:18;;;;;;;0.55;0.50;;;;;;;;;;5031228;28;20021;-75
2023/12/30 10:04:44;;;;;;;0.82;0.70;;;;;;;;;;5034370;28;20013;-75
2023/12/30 10:07:11;;;;;;;1.98;0.68;;;;;;;;;;5034876;28;20021;-74
2023/12/30 10:09:38;;;;;;;1.13;1.00;;;;;;;;;;5025712;28;20115;-75
2023/12/30 10:12:04;;;;;;;0.90;0.50;;;;;;;;;;5031834;28;20025;-76
2023/12/30 10:14:30;;;;;;;1.63;0.70;;;;;;;;;;5034511;28;20022;-76
2023/12/30 10:16:56;;;;;;;2.80;0.90;;;;;;;;;;5033033;28;20026;-75
2023/12/30 10:19:23;;;;;;;2.10;0.95;;;;;;;;;;5023369;28;20200;-76
2023/12/30 10:21:49;;;;;;;0.93;0.57;;;;;;;;;;5022974;28;20088;-76
2023/12/30 10:24:15;;;;;;;0.95;0.35;;;;;;;;;;5030397;28;20404;-76
2023/12/30 10:26:43;;;;;;;0.50;0.50;;;;;;;;;;5033252;28;20029;-75
2023/12/30 10:29:09;;;;;;;0.63;0.63;;;;;;;;;;5033328;28;20049;-74
2023/12/30 10:31:38;;;;;;;2.03;0.75;;;;;;;;;;5030154;28;20076;-74
2023/12/30 10:34:05;;;;;;;1.10;0.70;;;;;;;;;;5022429;28;20512;-76
2023/12/30 10:36:31;;;;;;;0.82;0.60;;;;;;;;;;5031905;28;20075;-75
2023/12/30 10:39:00;;;;;;;1.52;0.60;;;;;;;;;;5030537;28;20051;-74
2023/12/30 10:41:27;;;;;;;1.20;0.52;;;;;;;;;;5040588;28;20070;-75
2023/12/30 10:43:53;;;;;;;2.15;0.50;;;;;;;;;;5043330;28;20080;-75
2023/12/30 10:46:20;;;;;;;1.10;0.50;;;;;;;;;;5050509;28;20030;-75
2023/12/30 10:48:56;;;;;;;0.88;0.65;;;;;;;;;;5040159;28;20060;-73
2023/12/30 10:51:26;;;;;;;1.90;0.80;;;;;;;;;;5033883;28;20029;-74
2023/12/30 10:54:05;;;;;;;0.85;0.60;;;;;;;;;;5045460;28;20017;-74
2023/12/30 10:56:39;;;;;;;2.38;0.80;;;;;;;;;;5043411;28;20026;-75
2023/12/30 10:59:07;;;;;;;0.70;0.60;;;;;;;;;;5044007;28;20029;-73
2023/12/30 11:01:33;;;;;;;1.23;1.13;;;;;;;;;;5036995;28;20049;-76
2023/12/30 11:04:01;;;;;;;1.45;0.82;;;;;;;;;;5043478;28;20029;-75
2023/12/30 11:06:37;;;;;;;0.60;0.50;;;;;;;;;;5042979;28;20017;-76
2023/12/30 11:09:09;;;;;;;0.82;0.73;;;;;;;;;;5034807;28;20040;-76
2023/12/30 11:11:35;;;;;;;;;;;;;;;;;;5025216;28;20030;-77
2023/12/30 11:14:10;;;;;;;0.85;0.70;;;;;;;;;;5029860;28;20352;-77
2023/12/30 11:16:37;;;;;;;0.60;0.60;;;;;;;;;;5025424;28;20476;-76
2023/12/30 11:19:04;;;;;;;0.57;0.47;;;;;;;;;;5018455;28;20030;-76
2023/12/30 11:21:34;;;;;;;1.10;0.77;;;;;;;;;;5022832;28;20088;-76
2023/12/30 11:24:04;;;;;;;0.50;0.47;;;;;;;;;;5032800;28;20036;-75
2023/12/30 11:26:30;;;;;;;1.13;0.65;;;;;;;;;;5024848;28;20026;-75
2023/12/30 11:29:00;;;;;;;0.77;0.50;;;;;;;;;;5032200;28;20104;-74
2023/12/30 11:31:33;;;;;;;1.98;0.63;;;;;;;;;;5024342;28;20182;-75
2023/12/30 11:34:00;;;;;;;0.82;0.63;;;;;;;;;;5027343;28;20040;-75
2023/12/30 11:36:27;;;;;;;0.82;0.73;;;;;;;;;;5023141;28;20029;-76
2023/12/30 11:38:54;;;;;;;1.23;0.55;;;;;;;;;;5025188;28;20030;-75
2023/12/30 11:41:22;;;;;;;0.80;0.45;;;;;;;;;;5029903;28;20022;-74
2023/12/30 11:43:48;;;;;;;0.75;0.50;;;;;;;;;;5029778;28;20080;-75
2023/12/30 11:46:14;;;;;;;1.40;0.45;;;;;;;;;;5032102;28;20512;-76
2023/12/30 11:48:44;;;;;;;0.55;0.40;;;;;;;;;;5030986;28;20394;-76
2023/12/30 11:51:10;;;;;;;0.52;0.50;;;;;;;;;;5016452;28;20030;-76
2023/12/30 11:53:37;;;;;;;0.75;0.68;;;;;;;;;;5022997;28;20516;-76
2023/12/30 11:56:03;;;;;;;1.48;0.43;;;;;;;;;;5037116;28;20083;-76
2023/12/30 11:58:30;;;;;;;1.48;0.70;;;;;;;;;;5026593;28;20431;-76
2023/12/30 12:00:56;;;;;;;1.65;0.73;;;;;;;;;;5023453;28;20120;-76
2023/12/30 12:03:22;;;;;;;1.20;0.50;;;;;;;;;;5030687;28;20037;-75
2023/12/30 12:05:49;;;;;;;2.30;0.50;;;;;;;;;;5028353;28;20092;-76
2023/12/30 12:08:15;;;;;;;0.75;0.50;;;;;;;;;;5033828;28;20033;-72
2023/12/30 12:10:41;;;;;;;0.77;0.63;;;;;;;;;;5034950;28;20021;-73
2023/12/30 12:13:09;;;;;;;0.80;0.57;;;;;;;;;;5033918;28;20029;-75
2023/12/30 12:15:36;;;;;;;0.77;0.68;;;;;;;;;;5026927;28;20079;-75
2023/12/30 12:18:02;;;;;;;2.08;0.70;;;;;;;;;;5034143;28;20104;-76
2023/12/30 12:20:28;;;;;;;0.73;0.70;;;;;;;;;;5025423;28;20068;-75
2023/12/30 12:22:55;;;;;;;0.57;0.57;;;;;;;;;;5034820;28;20072;-76
2023/12/30 12:25:22;;;;;;;0.57;0.57;;;;;;;;;;5026586;28;20022;-76
2023/12/30 12:27:49;;;;;;;0.52;0.52;;;;;;;;;;5039182;28;20045;-76
2023/12/30 12:30:16;;;;;;;1.23;0.43;;;;;;;;;;5044541;28;20021;-75
2023/12/30 12:32:42;;;;;;;1.77;0.80;;;;;;;;;;5035930;28;20080;-75
2023/12/30 12:35:08;;;;;;;0.93;0.47;;;;;;;;;;5035233;28;20057;-75
2023/12/30 12:37:34;;;;;;;0.60;0.60;;;;;;;;;;5039225;28;20029;-75
2023/12/30 12:40:00;;;;;;;0.60;0.40;;;;;;;;;;5045238;28;20036;-76
2023/12/30 12:42:27;;;;;;;0.40;0.40;;;;;;;;;;5037904;28;20029;-74
2023/12/30 12:44:53;;;;;;;0.55;0.55;;;;;;;;;;5029264;28;20018;-75
2023/12/30 12:47:19;;;;;;;0.43;0.43;;;;;;;;;;5029721;28;20044;-75
2023/12/30 12:49:45;;;;;;;1.23;0.52;;;;;;;;;;5025249;28;20067;-74
2023/12/30 12:52:11;;;;;;;1.63;0.50;;;;;;;;;;5034006;28;20018;-76
2023/12/30 12:54:37;;;;;;;0.75;0.60;;;;;;;;;;5033408;28;20041;-76
2023/12/30 12:57:03;;;;;;;1.02;0.50;;;;;;;;;;5025976;28;20018;-76
2023/12/30 12:59:30;;;;;;;1.17;0.40;;;;;;;;;;5034501;28;20476;-75
2023/12/30 13:01:56;;;;;;;0.50;0.50;;;;;;;;;;5026877;28;20380;-76
2023/12/30 13:04:22;;;;;;;0.50;0.50;;;;;;;;;;5035237;28;20030;-76
2023/12/30 13:06:48;;;;;;;0.93;0.70;;;;;;;;;;5025603;28;20104;-75
2023/12/30 13:09:34;;;;;;;0.85;0.75;;;;;;;;;;5035222;28;20045;-76
2023/12/30 13:12:01;;;;;;;1.10;0.80;;;;;;;;;;5015945;28;20112;-75
2023/12/30 13:14:27;;;;;;;0.93;0.70;;;;;;;;;;5033238;28;20464;-75
2023/12/30 13:16:55;;;;;;;0.70;0.70;;;;;;;;;;5023607;28;20078;-76
2023/12/30 13:19:21;;;;;;;1.45;0.68;;;;;;;;;;5021254;28;20024;-77
2023/12/30 13:21:48;;;;;;;0.80;0.60;;;;;;;;;;5026888;28;20025;-76
2023/12/30 13:24:14;;;;;;;1.23;0.60;;;;;;;;;;5028973;28;20029;-76
2023/12/30 13:26:41;;;;;;;0.90;0.60;;;;;;;;;;5025529;28;20108;-75
2023/12/30 13:29:07;;;;;;;0.77;0.70;;;;;;;;;;5026599;28;20018;-76
2023/12/30 13:31:35;;;;;;;2.53;0.75;;;;;;;;;;5035658;28;20155;-76
2023/12/30 13:34:01;;;;;;;0.35;0.35;;;;;;;;;;5057071;23;20056;-78
2023/12/30 13:36:29;;;;;;;1.05;0.60;;;;;;;;;;5025845;28;20064;-77
2023/12/30 13:39:05;;;;;;;0.85;0.73;;;;;;;;;;5033336;28;20099;-77
2023/12/30 13:41:32;;;;;;;0.80;0.80;;;;;;;;;;5037604;28;20025;-78
2023/12/30 13:43:58;;;;;;;1.75;0.82;;;;;;;;;;5036791;28;20101;-79
2023/12/30 13:51:36;;;;;;;2.70;0.70;;;;;;;;;;5026651;28;20030;-77
2023/12/30 13:54:02;;;;;;;1.80;0.68;;;;;;;;;;5026602;28;20033;-77
2023/12/30 13:56:32;;;;;;;1.95;0.70;;;;;;;;;;5024771;28;20022;-77
2023/12/30 13:58:58;;;;;;;1.38;0.68;;;;;;;;;;5035425;28;20029;-78
2023/12/30 14:01:25;;;;;;;0.95;0.50;;;;;;;;;;5021020;28;20094;-78
2023/12/30 14:03:52;;;;;;;1.60;0.70;;;;;;;;;;5032165;28;20021;-77
2023/12/30 14:06:21;;;;;;;1.25;0.80;;;;;;;;;;5037154;28;20504;-77
2023/12/30 14:08:49;;;;;;;1.88;0.60;;;;;;;;;;5029930;28;20410;-78
2023/12/30 14:11:31;;;;;;;2.10;0.77;;;;;;;;;;5021353;28;20029;-78
2023/12/30 14:13:58;;;;;;;1.30;0.63;;;;;;;;;;5028597;28;20104;-78
2023/12/30 14:16:25;;;;;;;0.85;0.70;;;;;;;;;;5026653;28;20030;-78
2023/12/30 14:18:51;;;;;;;0.60;0.60;;;;;;;;;;5024353;28;20025;-79
2023/12/30 14:21:17;;;;;;;0.80;0.65;;;;;;;;;;5021888;28;20026;-78
2023/12/30 14:23:43;;;;;;;0.68;0.68;;;;;;;;;;5027094;28;20068;-78
2023/12/30 14:26:10;;;;;;;0.60;0.50;;;;;;;;;;5028116;28;20029;-78
2023/12/30 14:28:37;;;;;;;1.02;0.60;;;;;;;;;;5037749;28;20048;-78
2023/12/30 14:31:03;;;;;;;0.95;0.70;;;;;;;;;;5038639;28;20075;-77
2023/12/30 14:33:29;;;;;;;0.57;0.55;;;;;;;;;;5029176;28;20038;-79
2023/12/30 14:35:55;;;;;;;0.95;0.70;;;;;;;;;;5040298;28;20041;-78
2023/12/30 14:38:21;;;;;;;1.65;0.93;;;;;;;;;;5029494;28;20061;-78
2023/12/30 14:40:47;;;;;;;1.33;0.77;;;;;;;;;;5030771;28;20029;-78
2023/12/30 14:43:16;;;;;;;0.82;0.75;;;;;;;;;;5028647;28;20483;-77
2023/12/30 14:45:42;;;;;;;0.70;0.57;;;;;;;;;;5035144;28;20492;-78